createdAt,value
2022-09-28T00:00:00.412Z,181.3
2022-09-28T00:05:00.368Z,199.4
2022-09-28T00:10:00.396Z,171.3
2022-09-28T00:15:00.383Z,197.2
2022-09-28T00:20:00.403Z,180.6
2022-09-28T00:25:00.340Z,180.0
2022-09-28T00:30:00.428Z,200.4
2022-09-28T00:35:00.357Z,185.8
2022-09-28T00:40:00.380Z,188.3
2022-09-28T00:45:00.409Z,195.9
2022-09-28T00:50:00.420Z,193.1
2022-09-28T00:55:00.398Z,198.2
2022-09-28T01:00:00.474Z,191.9
2022-09-28T01:05:00.340Z,185.1
2022-09-28T01:10:00.384Z,206.5
2022-09-28T01:15:00.373Z,198.7
2022-09-28T01:20:00.401Z,201.2
2022-09-28T01:25:00.341Z,199.3
2022-09-28T01:30:00.373Z,193.1
2022-09-28T01:35:00.337Z,169.4
2022-09-28T01:40:00.404Z,172.7
2022-09-28T01:45:00.408Z,191.2
2022-09-28T01:50:00.367Z,195.3
2022-09-28T01:55:00.336Z,191.2
2022-09-28T02:00:00.397Z,184.2
2022-09-28T02:05:00.431Z,196.8
2022-09-28T02:10:00.355Z,190.3
2022-09-28T02:15:00.415Z,180.4
2022-09-28T02:20:00.695Z,190.0
2022-09-28T02:25:00.355Z,179.6
2022-09-28T02:30:00.374Z,200.5
2022-09-28T02:35:00.361Z,199.1
2022-09-28T02:40:00.379Z,193.4
2022-09-28T02:45:00.361Z,193.8
2022-09-28T02:50:00.367Z,208.1
2022-09-28T02:55:00.355Z,187.7
2022-09-28T03:00:00.379Z,184.9
2022-09-28T03:05:00.367Z,195.8
2022-09-28T03:10:00.411Z,198.3
2022-09-28T03:15:00.355Z,212.5
2022-09-28T03:20:00.374Z,190.6
2022-09-28T03:25:00.377Z,196.5
2022-09-28T03:30:00.403Z,172.3
2022-09-28T03:35:00.364Z,195.0
2022-09-28T03:40:00.403Z,176.3
2022-09-28T03:45:00.374Z,170.5
2022-09-28T03:50:00.432Z,199.1
2022-09-28T03:55:00.345Z,197.5
2022-09-28T04:00:00.483Z,179.0
2022-09-28T04:05:00.401Z,200.5
2022-09-28T04:10:00.386Z,200.4
2022-09-28T04:15:00.473Z,208.9
2022-09-28T04:20:00.349Z,202.6
2022-09-28T04:25:00.364Z,185.6
2022-09-28T04:30:00.378Z,197.3
2022-09-28T04:35:00.407Z,177.7
2022-09-28T04:40:00.390Z,200.3
2022-09-28T04:45:00.371Z,162.3
2022-09-28T04:50:00.391Z,186.6
2022-09-28T04:55:00.413Z,174.3
2022-09-28T05:00:00.414Z,161.7
2022-09-28T05:05:00.357Z,157.5
2022-09-28T05:10:00.392Z,175.9
2022-09-28T05:15:00.356Z,157.7
2022-09-28T05:20:00.368Z,173.1
2022-09-28T05:25:00.447Z,177.5
2022-09-28T05:30:00.404Z,178.2
2022-09-28T05:35:00.361Z,167.3
2022-09-28T05:40:00.405Z,174.0
2022-09-28T05:45:00.377Z,169.2
2022-09-28T05:50:01.851Z,167.0
2022-09-28T05:55:00.334Z,179.4
2022-09-28T06:00:00.455Z,185.7
2022-09-28T06:05:00.406Z,166.4
2022-09-28T06:10:00.477Z,197.3
2022-09-28T06:15:00.399Z,180.2
2022-09-28T06:20:00.465Z,198.2
2022-09-28T06:25:00.367Z,182.0
2022-09-28T06:30:00.450Z,197.2
2022-09-28T06:35:00.397Z,197.9
2022-09-28T06:40:00.385Z,200.3
2022-09-28T06:45:00.375Z,222.0
2022-09-28T06:50:00.379Z,204.0
2022-09-28T06:55:00.606Z,199.9
2022-09-28T07:00:00.371Z,163.0
2022-09-28T07:05:00.366Z,195.7
2022-09-28T07:10:00.410Z,193.0
2022-09-28T07:15:00.366Z,193.3
2022-09-28T07:20:20.006Z,185.3
2022-09-28T07:25:00.333Z,231.2
2022-09-28T07:30:00.384Z,178.5
2022-09-28T07:35:00.362Z,205.4
2022-09-28T07:40:00.368Z,227.0
2022-09-28T07:45:00.378Z,198.5
2022-09-28T07:50:00.385Z,127.2
2022-09-28T07:55:07.771Z,180.1
2022-09-28T08:00:00.567Z,55.9
2022-09-28T08:05:00.353Z,72.2
2022-09-28T08:10:00.380Z,115.3
2022-09-28T08:15:00.458Z,126.9
2022-09-28T08:20:00.471Z,46.7
2022-09-28T08:25:00.353Z,231.9
2022-09-28T08:30:00.427Z,225.1
2022-09-28T08:35:00.355Z,67.0
2022-09-28T08:40:00.398Z,105.7
2022-09-28T08:45:00.439Z,178.6
2022-09-28T08:50:00.673Z,171.2
2022-09-28T08:55:00.392Z,160.1
2022-09-28T09:00:00.430Z,206.0
2022-09-28T09:05:00.417Z,178.2
2022-09-28T09:10:00.412Z,179.9
2022-09-28T09:15:00.438Z,162.7
2022-09-28T09:20:00.426Z,169.0
2022-09-28T09:25:00.421Z,197.2
2022-09-28T09:30:00.448Z,196.4
2022-09-28T09:35:00.379Z,195.2
2022-09-28T09:40:00.558Z,208.4
2022-09-28T09:45:00.410Z,191.8
2022-09-28T09:50:09.337Z,169.8
2022-09-28T09:55:00.383Z,172.2
2022-09-28T10:00:00.495Z,192.4
2022-09-28T10:05:00.401Z,197.0
2022-09-28T10:10:00.411Z,202.2
2022-09-28T10:15:00.388Z,202.7
2022-09-28T10:20:00.404Z,197.1
2022-09-28T10:25:00.389Z,169.2
2022-09-28T10:30:00.717Z,204.5
2022-09-28T10:35:00.369Z,197.8
2022-09-28T10:40:00.390Z,195.5
2022-09-28T10:45:00.428Z,226.5
2022-09-28T10:50:00.385Z,181.1
2022-09-28T10:55:00.386Z,201.1
2022-09-28T11:00:00.486Z,191.0
2022-09-28T11:05:00.376Z,205.1
2022-09-28T11:10:00.421Z,184.2
2022-09-28T11:15:00.385Z,181.9
2022-09-28T11:20:00.417Z,193.5
2022-09-28T11:25:00.384Z,188.5
2022-09-28T11:30:00.467Z,198.6
2022-09-28T11:35:00.893Z,188.2
2022-09-28T11:40:00.420Z,197.6
2022-09-28T11:45:00.414Z,177.4
2022-09-28T11:50:00.455Z,180.8
2022-09-28T11:55:00.434Z,198.5
2022-09-28T12:00:00.487Z,228.2
2022-09-28T12:05:00.540Z,190.7
2022-09-28T12:10:00.404Z,193.7
2022-09-28T12:15:00.385Z,198.2
2022-09-28T12:20:00.433Z,208.2
2022-09-28T12:25:00.396Z,195.5
2022-09-28T12:30:00.501Z,191.7
2022-09-28T12:35:00.438Z,197.9
2022-09-28T12:40:01.792Z,192.7
2022-09-28T12:45:00.501Z,195.7
2022-09-28T12:50:39.505Z,199.4
2022-09-28T12:55:00.728Z,192.0
2022-09-28T13:00:00.630Z,205.3
2022-09-28T13:05:00.368Z,183.2
2022-09-28T13:10:00.737Z,190.0
2022-09-28T13:15:00.372Z,196.2
2022-09-28T13:20:00.857Z,200.6
2022-09-28T13:25:00.447Z,197.3
2022-09-28T13:30:01.515Z,195.3
2022-09-28T13:35:00.431Z,194.6
2022-09-28T13:40:00.436Z,196.4
2022-09-28T13:45:00.456Z,193.2
2022-09-28T13:50:00.476Z,191.8
2022-09-28T13:55:00.690Z,193.2
2022-09-28T14:00:00.489Z,182.8
2022-09-28T14:05:00.410Z,208.9
2022-09-28T14:10:00.481Z,187.3
2022-09-28T14:15:00.402Z,181.5
2022-09-28T14:20:00.448Z,171.7
2022-09-28T14:25:00.401Z,181.7
2022-09-28T14:30:00.441Z,185.5
2022-09-28T14:35:00.400Z,182.6
2022-09-28T14:40:00.386Z,199.5
2022-09-28T14:45:07.743Z,193.1
2022-09-28T14:50:00.473Z,186.3
2022-09-28T14:55:00.403Z,191.6
2022-09-28T15:00:00.470Z,210.4
2022-09-28T15:05:01.070Z,207.5
2022-09-28T15:10:00.443Z,172.0
2022-09-28T15:15:00.457Z,211.3
2022-09-28T15:20:00.416Z,219.9
2022-09-28T15:25:03.356Z,280.2
2022-09-28T15:30:00.510Z,299.8
2022-09-28T15:35:00.391Z,2.0
2022-09-28T15:40:00.477Z,22.8
2022-09-28T15:45:00.409Z,343.4
2022-09-28T15:50:00.451Z,325.9
2022-09-28T15:55:00.454Z,319.3
2022-09-28T16:00:00.502Z,335.0
2022-09-28T16:05:00.393Z,225.3
2022-09-28T16:10:00.486Z,228.3
2022-09-28T16:15:00.434Z,275.3
2022-09-28T16:20:00.437Z,290.8
2022-09-28T16:25:00.408Z,300.4
2022-09-28T16:30:01.114Z,320.2
2022-09-28T16:35:00.383Z,306.0
2022-09-28T16:40:00.916Z,312.0
2022-09-28T16:45:00.411Z,338.3
2022-09-28T16:50:01.051Z,331.8
2022-09-28T16:55:00.362Z,337.5
2022-09-28T17:00:00.711Z,337.5
2022-09-28T17:05:00.365Z,337.5
2022-09-28T17:10:00.396Z,315.8
2022-09-28T17:15:00.386Z,191.7
2022-09-28T17:20:00.404Z,204.5
2022-09-28T17:25:00.377Z,225.0
2022-09-28T17:30:00.406Z,202.7
2022-09-28T17:35:25.506Z,203.4
2022-09-28T17:40:00.537Z,202.5
2022-09-28T17:45:00.374Z,203.2
2022-09-28T17:50:00.394Z,202.5
2022-09-28T17:55:00.340Z,202.5
2022-09-28T18:00:00.806Z,202.5
2022-09-28T18:05:00.371Z,202.5
2022-09-28T18:10:00.634Z,202.5
2022-09-28T18:15:00.424Z,202.5
2022-09-28T18:20:00.495Z,202.5
2022-09-28T18:25:00.397Z,202.5
2022-09-28T18:30:00.530Z,202.5
2022-09-28T18:35:00.357Z,182.3
2022-09-28T18:40:00.389Z,202.3
2022-09-28T18:45:00.391Z,202.5
2022-09-28T18:50:00.602Z,184.5
2022-09-28T18:55:00.382Z,180.1
2022-09-28T19:00:00.476Z,180.0
2022-09-28T19:05:00.361Z,180.0
2022-09-28T19:10:00.519Z,180.0
2022-09-28T19:15:00.418Z,180.0
2022-09-28T19:20:00.379Z,201.8
2022-09-28T19:25:00.413Z,199.8
2022-09-28T19:30:00.425Z,200.1
2022-09-28T19:35:00.388Z,202.5
2022-09-28T19:40:00.396Z,201.2
2022-09-28T19:45:00.364Z,201.3
2022-09-28T19:50:00.652Z,202.5
2022-09-28T19:55:00.361Z,202.5
2022-09-28T20:00:04.275Z,202.5
2022-09-28T20:05:00.390Z,202.5
2022-09-28T20:10:00.430Z,202.5
2022-09-28T20:15:00.450Z,202.5
2022-09-28T20:20:00.409Z,198.1
2022-09-28T20:25:00.383Z,202.5
2022-09-28T20:30:00.506Z,202.5
2022-09-28T20:35:00.344Z,202.5
2022-09-28T20:40:00.398Z,202.5
2022-09-28T20:45:00.373Z,202.5
2022-09-28T20:50:00.418Z,202.5
2022-09-28T20:55:00.371Z,201.4
2022-09-28T21:00:00.400Z,203.8
2022-09-28T21:05:00.352Z,208.8
2022-09-28T21:10:00.647Z,210.2
2022-09-28T21:15:06.454Z,200.7
2022-09-28T21:20:00.347Z,195.6
2022-09-28T21:25:00.338Z,195.2
2022-09-28T21:30:00.827Z,189.1
2022-09-28T21:35:00.431Z,185.1
2022-09-28T21:40:00.709Z,200.6
2022-09-28T21:45:00.358Z,197.3
2022-09-28T21:50:00.439Z,199.0
2022-09-28T21:55:00.402Z,211.5
2022-09-28T22:00:00.726Z,193.5
2022-09-28T22:05:00.398Z,202.7
2022-09-28T22:10:00.435Z,216.4
2022-09-28T22:15:00.366Z,200.1
2022-09-28T22:20:00.403Z,200.7
2022-09-28T22:25:00.378Z,202.4
2022-09-28T22:30:00.409Z,166.4
2022-09-28T22:35:00.376Z,174.8
2022-09-28T22:40:00.383Z,178.9
2022-09-28T22:45:00.373Z,180.0
2022-09-28T22:50:00.384Z,180.0
2022-09-28T22:55:00.372Z,200.6
2022-09-28T23:00:00.396Z,200.1
2022-09-28T23:05:00.357Z,202.1
2022-09-28T23:10:00.378Z,202.5
2022-09-28T23:15:00.350Z,192.2
2022-09-28T23:20:00.365Z,203.0
2022-09-28T23:25:00.336Z,196.0
2022-09-28T23:30:00.375Z,202.5
2022-09-28T23:35:00.348Z,202.7
2022-09-28T23:40:00.393Z,202.5
2022-09-28T23:45:00.386Z,204.2
2022-09-28T23:50:00.380Z,202.1
2022-09-28T23:55:00.407Z,205.3
